Time;durP1;ratioP1;P1;durP2;ratioP2;P2;SDS_P1;SDS_P2;PMS_P1;PMS_P2;Temp;Humidity;BMP_temperature;BMP_pressure;BME280_temperature;BME280_humidity;BME280_pressure;Samples;Min_cycle;Max_cycle;Signal;HPM_P1;HPM_P2
2022/10/04 00:03:10;;;;;;;3.10;2.80;;;12.10;41.00;;;;;;10468344;28;20213;-77
2022/10/04 00:08:26;;;;;;;3.33;3.03;;;12.10;41.10;;;;;;10467909;28;20319;-76
2022/10/04 00:13:30;;;;;;;3.97;2.73;;;12.10;41.00;;;;;;10467821;28;20227;-76
2022/10/04 00:18:40;;;;;;;4.70;3.03;;;12.10;41.00;;;;;;10466998;28;20232;-76
2022/10/04 00:23:46;;;;;;;7.00;3.27;;;12.10;41.00;;;;;;10467136;28;21753;-77
2022/10/04 00:28:50;;;;;;;2.97;2.77;;;12.10;40.60;;;;;;10461032;28;20239;-76
2022/10/04 00:33:56;;;;;;;3.67;3.30;;;12.00;40.50;;;;;;10466611;28;20213;-76
2022/10/04 00:39:43;;;;;;;3.10;2.80;;;11.90;40.50;;;;;;10464340;28;20229;-76
2022/10/04 00:44:52;;;;;;;4.97;3.20;;;11.80;40.70;;;;;;10430208;28;20259;-76
2022/10/04 00:50:01;;;;;;;2.90;2.60;;;11.70;40.90;;;;;;10466735;28;20236;-76
2022/10/04 00:55:09;;;;;;;6.00;3.03;;;11.70;41.60;;;;;;10461193;28;20243;-76
2022/10/04 01:00:14;;;;;;;2.50;2.30;;;11.70;40.90;;;;;;10464218;28;20235;-76
2022/10/04 01:05:23;;;;;;;2.93;2.63;;;11.60;40.80;;;;;;10465883;28;20256;-76
2022/10/04 01:10:30;;;;;;;2.87;2.60;;;11.60;40.90;;;;;;10457079;28;20244;-76
2022/10/04 01:15:41;;;;;;;2.90;2.70;;;11.60;40.90;;;;;;10466023;28;20247;-76
2022/10/04 01:20:53;;;;;;;3.33;3.00;;;11.50;40.60;;;;;;10463518;28;20256;-76
2022/10/04 01:25:58;;;;;;;3.20;2.90;;;11.50;40.80;;;;;;10466874;28;20224;-76
2022/10/04 01:31:02;;;;;;;3.40;2.97;;;11.40;40.40;;;;;;10460154;28;20239;-75
2022/10/04 01:36:05;;;;;;;3.23;2.97;;;11.40;40.70;;;;;;10467400;28;20218;-76
2022/10/04 01:41:13;;;;;;;2.47;2.30;;;11.30;40.80;;;;;;10465003;28;20284;-77
2022/10/04 01:46:21;;;;;;;3.80;3.37;;;11.30;41.10;;;;;;10463114;28;20363;-76
2022/10/04 01:51:27;;;;;;;6.83;3.00;;;11.20;41.00;;;;;;10462777;28;20292;-76
2022/10/04 01:56:37;;;;;;;3.40;3.10;;;11.20;41.00;;;;;;10461357;28;20240;-76
2022/10/04 02:01:47;;;;;;;3.03;2.50;;;11.10;40.90;;;;;;10468177;28;20240;-76
2022/10/04 02:06:53;;;;;;;4.13;2.63;;;11.10;40.90;;;;;;10461556;28;20233;-76
2022/10/04 02:11:58;;;;;;;2.50;2.30;;;11.00;40.80;;;;;;10466407;28;20233;-76
2022/10/04 02:17:04;;;;;;;1.97;1.87;;;11.00;40.80;;;;;;10461134;28;20697;-76
2022/10/04 02:22:10;;;;;;;3.50;2.40;;;10.90;40.70;;;;;;10462058;28;20225;-76
2022/10/04 02:27:16;;;;;;;3.63;2.57;;;10.90;40.70;;;;;;10462446;28;20233;-76
2022/10/04 02:37:39;;;;;;;2.93;2.37;;;10.80;40.60;;;;;;10460608;28;20323;-76
2022/10/04 02:42:50;;;;;;;3.53;2.30;;;10.70;40.50;;;;;;10458685;28;20229;-76
2022/10/04 02:47:58;;;;;;;2.10;1.90;;;10.60;40.50;;;;;;10459200;28;20259;-76
2022/10/04 02:53:11;;;;;;;2.53;2.33;;;10.60;40.50;;;;;;10464243;28;20231;-76
2022/10/04 02:58:20;;;;;;;2.50;2.10;;;10.50;40.40;;;;;;10459188;28;20244;-75
2022/10/04 03:03:27;;;;;;;2.40;2.20;;;10.50;40.40;;;;;;10463718;28;20286;-76
2022/10/04 03:08:33;;;;;;;2.40;2.20;;;10.50;40.40;;;;;;10461222;28;20262;-76
2022/10/04 03:13:38;;;;;;;2.50;2.30;;;10.50;40.40;;;;;;10471261;28;20228;-76
2022/10/04 03:18:42;;;;;;;2.20;2.00;;;10.50;40.40;;;;;;10471588;28;20236;-75
2022/10/04 03:23:49;;;;;;;1.77;1.67;;;10.40;40.30;;;;;;10471083;28;20802;-76
2022/10/04 03:28:54;;;;;;;2.40;1.70;;;10.40;40.30;;;;;;10470412;28;20231;-76
2022/10/04 03:33:58;;;;;;;2.97;2.03;;;10.30;40.20;;;;;;10465784;28;20232;-76
2022/10/04 03:39:09;;;;;;;2.23;1.90;;;10.30;40.30;;;;;;10463200;28;20294;-76
2022/10/04 03:44:16;;;;;;;3.20;2.03;;;10.30;40.40;;;;;;10472267;28;20236;-76
2022/10/04 03:49:30;;;;;;;2.40;2.20;;;10.30;40.40;;;;;;10466815;28;20232;-75
2022/10/04 03:54:34;;;;;;;1.93;1.80;;;10.30;40.50;;;;;;10468895;28;20229;-75
2022/10/04 03:59:39;;;;;;;2.13;1.93;;;10.30;40.20;;;;;;10464618;28;20243;-76
2022/10/04 04:04:50;;;;;;;2.10;1.90;;;10.20;40.20;;;;;;10466315;28;20226;-76
2022/10/04 04:10:00;;;;;;;2.43;2.17;;;10.10;40.20;;;;;;10468800;28;20229;-76
2022/10/04 04:15:06;;;;;;;2.77;2.10;;;10.10;40.20;;;;;;10466288;28;20232;-75
2022/10/04 04:20:19;;;;;;;2.60;2.40;;;10.10;40.20;;;;;;10464954;28;20232;-75
2022/10/04 04:25:25;;;;;;;3.20;2.90;;;10.00;40.30;;;;;;10459257;28;20228;-76
2022/10/04 04:30:31;;;;;;;3.00;2.70;;;10.00;40.10;;;;;;10465279;28;20233;-76
2022/10/04 04:35:36;;;;;;;2.77;2.57;;;9.90;40.90;;;;;;10463623;28;20241;-76
2022/10/04 04:40:39;;;;;;;3.30;2.53;;;9.80;41.00;;;;;;10468147;28;20521;-77
2022/10/04 04:45:47;;;;;;;2.60;2.40;;;9.80;41.40;;;;;;10467656;28;20764;-76
2022/10/04 04:51:20;;;;;;;2.63;2.43;;;9.70;41.20;;;;;;10464792;28;20692;-76
2022/10/04 04:56:27;;;;;;;1.87;1.77;;;9.60;41.60;;;;;;10462766;28;20235;-75
2022/10/04 05:01:36;;;;;;;3.40;2.30;;;9.60;41.70;;;;;;10462891;28;20778;-75
2022/10/04 05:06:41;;;;;;;2.70;2.00;;;9.60;41.90;;;;;;10465691;28;20246;-75
2022/10/04 05:11:44;;;;;;;2.40;1.80;;;9.60;41.90;;;;;;10465184;28;20744;-75
2022/10/04 05:16:51;;;;;;;2.50;2.30;;;9.50;41.90;;;;;;10461166;28;20263;-76
2022/10/04 05:21:56;;;;;;;5.63;3.40;;;9.50;42.20;;;;;;10462606;28;20228;-79
2022/10/04 05:27:02;;;;;;;4.40;3.90;;;9.50;43.20;;;;;;10461070;28;20236;-76
2022/10/04 05:32:21;;;;;;;3.60;3.30;;;9.60;43.10;;;;;;10460898;28;20774;-75
2022/10/04 05:37:39;;;;;;;2.70;2.50;;;9.70;43.30;;;;;;10466429;28;20231;-76
2022/10/04 05:42:45;;;;;;;3.20;2.37;;;9.70;43.10;;;;;;10465110;28;20734;-76
2022/10/04 05:47:52;;;;;;;3.07;2.63;;;9.80;43.00;;;;;;10467737;28;20231;-76
2022/10/04 05:53:14;;;;;;;2.50;2.30;;;9.80;43.10;;;;;;10460996;28;20239;-76
2022/10/04 05:58:38;;;;;;;2.70;2.50;;;9.70;43.20;;;;;;10459973;28;20232;-76
2022/10/04 06:04:01;;;;;;;4.73;2.50;;;9.80;43.20;;;;;;10465546;28;20236;-75
2022/10/04 06:09:13;;;;;;;2.83;2.40;;;9.80;43.40;;;;;;10459233;28;20228;-75
2022/10/04 06:14:31;;;;;;;4.37;2.13;;;9.80;44.30;;;;;;10458601;28;20819;-77
2022/10/04 06:20:08;;;;;;;3.07;2.77;;;9.80;43.60;;;;;;10461183;28;20275;-77
2022/10/04 06:25:16;;;;;;;4.20;2.83;;;9.90;44.00;;;;;;10463995;28;20240;-79
2022/10/04 06:30:21;;;;;;;2.80;2.53;;;9.90;43.60;;;;;;10466330;28;20606;-79
2022/10/04 06:36:01;;;;;;;3.17;2.80;;;9.90;43.70;;;;;;10466771;28;20251;-77
2022/10/04 06:41:27;;;;;;;4.30;2.70;;;9.90;44.50;;;;;;10457819;28;20220;-77
2022/10/04 06:46:37;;;;;;;2.80;2.60;;;10.00;43.70;;;;;;10464801;28;20239;-77
2022/10/04 06:52:06;;;;;;;3.00;2.70;;;10.10;43.80;;;;;;10473245;28;20277;-77
2022/10/04 06:57:57;;;;;;;3.57;2.90;;;10.10;44.40;;;;;;10463682;28;20227;-77
2022/10/04 07:03:05;;;;;;;4.90;3.00;;;10.20;44.40;;;;;;10459861;28;20287;-76
2022/10/04 07:08:29;;;;;;;4.07;3.50;;;10.30;44.10;;;;;;10471656;28;20227;-77
2022/10/04 07:13:43;;;;;;;4.60;3.83;;;10.40;44.60;;;;;;10467862;28;20232;-77
2022/10/04 07:19:08;;;;;;;4.63;4.10;;;10.50;45.00;;;;;;10469397;28;20641;-77
2022/10/04 07:24:24;;;;;;;3.93;3.53;;;10.70;45.50;;;;;;10467567;28;20236;-77
2022/10/04 07:29:30;;;;;;;4.40;2.87;;;10.80;45.50;;;;;;10464531;28;20235;-77
2022/10/04 07:34:40;;;;;;;4.07;3.23;;;10.90;44.80;;;;;;10459367;28;20237;-77
2022/10/04 07:39:50;;;;;;;3.50;2.90;;;11.00;45.20;;;;;;10468728;28;20240;-77
2022/10/04 07:45:11;;;;;;;3.63;3.30;;;11.20;45.50;;;;;;10466921;28;20731;-77
2022/10/04 07:50:23;;;;;;;4.87;3.37;;;11.30;45.60;;;;;;10463647;28;20233;-77
2022/10/04 07:55:40;;;;;;;4.20;3.43;;;11.40;45.90;;;;;;10471494;28;20225;-77
2022/10/04 08:00:50;;;;;;;3.40;3.10;;;11.50;45.80;;;;;;10467724;28;20688;-77
2022/10/04 08:06:08;;;;;;;3.60;3.30;;;11.70;46.20;;;;;;10468331;28;20712;-77
2022/10/04 08:11:24;;;;;;;4.90;4.33;;;11.80;46.50;;;;;;10466968;28;20314;-77
2022/10/04 08:16:36;;;;;;;3.70;3.30;;;12.00;46.60;;;;;;10462629;28;20228;-77
2022/10/04 08:21:48;;;;;;;3.87;3.37;;;12.20;46.70;;;;;;10461059;28;20653;-76
2022/10/04 08:27:14;;;;;;;3.87;3.13;;;12.40;46.70;;;;;;10470272;28;20221;-77
2022/10/04 08:32:30;;;;;;;5.73;3.30;;;12.60;47.30;;;;;;10462835;28;20594;-77
2022/10/04 08:37:43;;;;;;;5.40;3.17;;;12.70;47.40;;;;;;10462091;28;20239;-77
2022/10/04 08:43:12;;;;;;;3.93;3.17;;;12.90;46.90;;;;;;10468688;28;20724;-77
2022/10/04 08:48:51;;;;;;;3.67;2.70;;;13.10;47.20;;;;;;10460044;28;20229;-76
2022/10/04 08:54:26;;;;;;;3.70;3.07;;;13.20;47.10;;;;;;10434595;28;20225;-77
2022/10/04 09:00:03;;;;;;;3.80;3.50;;;13.40;47.30;;;;;;10463462;28;20231;-77
2022/10/04 09:05:22;;;;;;;3.40;3.00;;;13.60;47.60;;;;;;10465075;28;20228;-77
2022/10/04 09:10:55;;;;;;;4.20;3.03;;;13.80;47.60;;;;;;10461815;28;20286;-76
2022/10/04 09:16:11;;;;;;;3.60;3.30;;;14.00;47.50;;;;;;10463627;28;20298;-76
2022/10/04 09:21:26;;;;;;;4.77;3.07;;;14.20;47.60;;;;;;10460266;28;20241;-76
2022/10/04 09:26:43;;;;;;;4.43;2.77;;;14.50;47.40;;;;;;10466027;28;20239;-76
2022/10/04 09:32:12;;;;;;;4.80;2.87;;;14.70;46.90;;;;;;10461374;28;20228;-76
2022/10/04 09:37:24;;;;;;;3.10;2.20;;;15.00;47.50;;;;;;10458293;28;20271;-77
2022/10/04 09:42:53;;;;;;;4.60;2.50;;;15.20;46.50;;;;;;10460746;28;21314;-76
2022/10/04 09:48:16;;;;;;;2.60;2.00;;;15.40;46.00;;;;;;10465726;28;20224;-76
2022/10/04 09:53:39;;;;;;;2.37;1.80;;;15.60;45.20;;;;;;10457223;28;20224;-73
2022/10/04 09:59:26;;;;;;;3.93;1.80;;;15.80;45.00;;;;;;10463746;28;20239;-73
2022/10/04 10:04:48;;;;;;;2.03;1.40;;;16.00;45.20;;;;;;10444485;28;20689;-73
2022/10/04 10:15:29;;;;;;;3.00;1.60;;;16.40;43.60;;;;;;10456853;28;20224;-74
2022/10/04 10:20:50;;;;;;;1.93;1.30;;;16.70;43.90;;;;;;10452693;28;20240;-73
2022/10/04 10:26:25;;;;;;;3.07;1.40;;;16.80;42.70;;;;;;10461832;28;20232;-73
2022/10/04 10:31:49;;;;;;;1.73;1.50;;;17.00;42.40;;;;;;10452026;28;20247;-73
2022/10/04 10:37:07;;;;;;;2.70;1.70;;;17.10;42.20;;;;;;10462634;28;20255;-75
2022/10/04 10:42:35;;;;;;;4.27;1.67;;;17.30;42.00;;;;;;10464323;28;20234;-75
2022/10/04 10:47:48;;;;;;;3.63;1.47;;;17.40;41.60;;;;;;10462542;28;20774;-74
2022/10/04 10:53:36;;;;;;;5.13;1.60;;;17.50;41.50;;;;;;10450120;28;20228;-74
2022/10/04 10:59:06;;;;;;;1.67;1.37;;;17.50;41.60;;;;;;10453654;28;20241;-74
2022/10/04 11:04:43;;;;;;;3.23;1.30;;;17.70;41.20;;;;;;10452865;28;20285;-75
2022/10/04 11:10:22;;;;;;;2.63;1.43;;;17.70;40.70;;;;;;10434654;28;20232;-75
2022/10/04 11:15:48;;;;;;;1.80;1.30;;;17.90;40.50;;;;;;10447933;28;20224;-74
2022/10/04 11:21:30;;;;;;;1.97;1.00;;;17.90;40.10;;;;;;10458960;28;20248;-74
2022/10/04 11:27:14;;;;;;;1.73;1.10;;;18.00;40.30;;;;;;10457059;28;20232;-74
2022/10/04 11:32:58;;;;;;;1.90;1.20;;;18.00;40.30;;;;;;10466789;28;20232;-75
2022/10/04 11:38:13;;;;;;;1.63;1.20;;;18.10;39.40;;;;;;10468628;28;20259;-76
2022/10/04 11:43:34;;;;;;;3.07;1.20;;;18.10;39.20;;;;;;10472976;28;20235;-77
2022/10/04 11:48:52;;;;;;;3.63;1.13;;;18.30;39.50;;;;;;10467983;28;20707;-77
2022/10/04 11:54:28;;;;;;;1.73;1.23;;;18.30;38.90;;;;;;10471077;28;20739;-77
2022/10/04 11:59:46;;;;;;;2.30;1.40;;;18.40;38.40;;;;;;10438735;28;20235;-77
2022/10/04 12:05:21;;;;;;;1.63;1.20;;;18.60;38.00;;;;;;10475396;28;20240;-77
2022/10/04 12:10:29;;;;;;;2.83;1.30;;;18.60;37.90;;;;;;10466127;28;20225;-78
2022/10/04 12:15:44;;;;;;;1.97;1.20;;;18.60;37.50;;;;;;10469846;28;20239;-77
2022/10/04 12:21:33;;;;;;;2.30;1.20;;;18.70;37.70;;;;;;10476963;28;20228;-78
2022/10/04 12:27:10;;;;;;;2.63;1.20;;;18.70;38.10;;;;;;10442489;28;20653;-77
2022/10/04 12:32:19;;;;;;;1.60;1.17;;;18.80;38.00;;;;;;10473863;28;20244;-77
2022/10/04 12:37:29;;;;;;;2.87;1.33;;;18.90;37.90;;;;;;10460727;28;20667;-77
2022/10/04 12:42:43;;;;;;;1.67;1.00;;;19.00;37.50;;;;;;10467197;28;20229;-77
2022/10/04 12:48:07;;;;;;;1.90;1.10;;;19.10;36.60;;;;;;10464186;28;20232;-77
2022/10/04 12:53:18;;;;;;;1.97;1.10;;;19.10;36.50;;;;;;10473577;28;20232;-77
2022/10/04 12:58:29;;;;;;;2.67;1.80;;;19.20;36.60;;;;;;10464072;28;21306;-77
2022/10/04 13:03:58;;;;;;;1.40;1.13;;;19.20;36.70;;;;;;10466543;28;20697;-77
2022/10/04 13:09:10;;;;;;;1.47;1.07;;;19.30;35.90;;;;;;10464347;28;20224;-77
2022/10/04 13:14:40;;;;;;;2.67;1.70;;;19.30;35.90;;;;;;10470317;28;20248;-77
2022/10/04 13:19:59;;;;;;;1.30;1.17;;;19.40;36.00;;;;;;10465510;28;20237;-77
2022/10/04 13:25:25;;;;;;;2.37;1.20;;;19.40;35.60;;;;;;10461581;28;20352;-76
2022/10/04 13:30:37;;;;;;;1.47;1.10;;;19.40;36.00;;;;;;10464602;28;20237;-77
2022/10/04 13:35:49;;;;;;;1.47;1.10;;;19.40;36.00;;;;;;10466193;28;20236;-77
2022/10/04 13:41:04;;;;;;;1.60;1.30;;;19.50;35.20;;;;;;10475091;28;20234;-78
2022/10/04 13:46:21;;;;;;;1.70;1.20;;;19.50;35.10;;;;;;10470813;28;20229;-77
2022/10/04 13:57:30;;;;;;;3.63;1.20;;;19.50;35.50;;;;;;10463905;28;20668;-77
2022/10/04 14:03:02;;;;;;;2.97;1.40;;;19.60;35.20;;;;;;10461915;28;20229;-77
2022/10/04 14:08:31;;;;;;;2.30;1.30;;;19.60;35.50;;;;;;10453235;28;21133;-77
2022/10/04 14:13:59;;;;;;;1.60;1.30;;;19.60;35.20;;;;;;10456044;28;20277;-77
2022/10/04 14:19:36;;;;;;;4.23;1.47;;;19.70;35.20;;;;;;10464571;28;20697;-77
2022/10/04 14:25:15;;;;;;;3.23;1.50;;;19.70;35.20;;;;;;10463651;28;20240;-76
2022/10/04 14:30:40;;;;;;;3.20;1.33;;;19.60;36.20;;;;;;10468739;28;21328;-78
2022/10/04 14:35:47;;;;;;;1.50;1.20;;;19.60;35.20;;;;;;10452125;28;20244;-76
2022/10/04 14:41:18;;;;;;;1.63;1.03;;;19.60;36.20;;;;;;10464051;28;20231;-77
2022/10/04 14:46:35;;;;;;;2.13;1.13;;;19.60;35.30;;;;;;10462478;28;20295;-77
2022/10/04 14:51:49;;;;;;;2.43;1.27;;;19.60;34.80;;;;;;10461086;28;20720;-76
2022/10/04 14:57:01;;;;;;;3.30;1.30;;;19.60;35.20;;;;;;10463394;28;20233;-76
2022/10/04 15:02:47;;;;;;;1.53;1.43;;;19.60;34.90;;;;;;10462393;28;20705;-77
2022/10/04 15:07:55;;;;;;;2.17;1.50;;;19.60;35.40;;;;;;10466081;28;20224;-76
2022/10/04 15:13:02;;;;;;;2.07;1.30;;;19.50;35.80;;;;;;10468853;28;20716;-76
2022/10/04 15:18:30;;;;;;;2.27;1.40;;;19.50;35.50;;;;;;10462123;28;20712;-76
2022/10/04 15:23:38;;;;;;;1.33;1.23;;;19.50;35.20;;;;;;10467701;28;20224;-76
2022/10/04 15:29:13;;;;;;;2.07;1.70;;;19.40;36.00;;;;;;10472138;28;20240;-76
2022/10/04 15:34:33;;;;;;;2.43;1.40;;;19.40;35.60;;;;;;10475449;28;20232;-76
2022/10/04 15:39:58;;;;;;;2.10;1.27;;;19.40;35.40;;;;;;10473495;28;20232;-76
2022/10/04 15:45:22;;;;;;;2.40;1.40;;;19.30;35.50;;;;;;10471443;28;20279;-77
2022/10/04 15:50:32;;;;;;;3.90;1.50;;;19.30;35.40;;;;;;10419457;28;20277;-77
2022/10/04 15:56:06;;;;;;;4.47;1.63;;;19.30;35.90;;;;;;10472404;28;20225;-76
2022/10/04 16:01:37;;;;;;;1.90;1.70;;;19.30;35.90;;;;;;10468792;28;20229;-77
2022/10/04 16:06:49;;;;;;;2.47;1.60;;;19.30;35.90;;;;;;10468691;28;20255;-77
2022/10/04 16:12:05;;;;;;;3.30;2.50;;;19.30;35.90;;;;;;10473481;28;20243;-77
2022/10/04 16:17:44;;;;;;;3.60;2.47;;;19.30;35.90;;;;;;10472619;28;20228;-77
2022/10/04 16:23:22;;;;;;;3.33;2.67;;;19.20;36.30;;;;;;10480407;28;20227;-77
2022/10/04 16:29:05;;;;;;;4.57;2.70;;;19.20;36.30;;;;;;10467634;28;20228;-76
2022/10/04 16:34:24;;;;;;;3.40;2.57;;;19.20;37.10;;;;;;10421636;28;20228;-77
2022/10/04 16:45:01;;;;;;;4.93;2.40;;;19.10;36.60;;;;;;10463298;28;20316;-77
2022/10/04 16:50:09;;;;;;;3.10;2.57;;;19.00;36.60;;;;;;10460932;28;20647;-77
2022/10/04 16:55:46;;;;;;;3.07;2.03;;;19.00;36.90;;;;;;10464916;28;20302;-77
2022/10/04 17:01:33;;;;;;;2.93;2.00;;;18.90;36.70;;;;;;10465657;28;20228;-77
2022/10/04 17:06:47;;;;;;;2.73;2.07;;;18.70;36.60;;;;;;10471064;28;20274;-77
2022/10/04 17:12:16;;;;;;;3.97;1.93;;;18.70;36.80;;;;;;10460486;28;20724;-76
2022/10/04 17:17:35;;;;;;;5.37;2.07;;;18.60;36.80;;;;;;10468261;28;20240;-77
2022/10/04 17:22:51;;;;;;;2.93;1.90;;;18.50;36.70;;;;;;10465842;28;20228;-78
2022/10/04 17:27:59;;;;;;;6.50;3.80;;;18.30;36.70;;;;;;10475316;28;20236;-78
2022/10/04 17:33:23;;;;;;;9.17;6.80;;;18.20;36.80;;;;;;10473192;28;20812;-78
2022/10/04 17:38:34;;;;;;;9.90;7.10;;;18.00;36.70;;;;;;10475784;28;20243;-77
2022/10/04 17:43:46;;;;;;;6.47;5.70;;;17.90;37.00;;;;;;10474970;28;20227;-78
2022/10/04 17:59:45;;;;;;;7.80;7.00;;;17.60;37.20;;;;;;10480264;28;20232;-78
2022/10/04 18:04:54;;;;;;;6.67;6.07;;;17.50;37.20;;;;;;10476702;28;20244;-78
2022/10/04 18:10:03;;;;;;;5.40;4.90;;;17.40;37.20;;;;;;10478242;28;20228;-78
2022/10/04 18:15:17;;;;;;;5.70;5.17;;;17.30;37.30;;;;;;10475573;28;20233;-78
2022/10/04 18:20:27;;;;;;;7.30;6.60;;;17.20;37.30;;;;;;10473477;28;20244;-78
2022/10/04 18:25:32;;;;;;;11.40;9.60;;;17.10;37.20;;;;;;10477307;28;20298;-78
2022/10/04 18:30:57;;;;;;;10.83;9.37;;;17.10;37.20;;;;;;10475358;28;20236;-78
2022/10/04 18:36:05;;;;;;;10.47;9.47;;;17.00;37.30;;;;;;10469579;28;20225;-78
2022/10/04 18:41:17;;;;;;;12.10;10.93;;;16.90;37.30;;;;;;10475570;28;20223;-78
2022/10/04 18:46:23;;;;;;;10.77;9.77;;;16.80;37.10;;;;;;10465977;28;20232;-79
2022/10/04 18:51:30;;;;;;;11.87;8.73;;;16.70;37.30;;;;;;10470206;28;20306;-78
2022/10/04 18:56:39;;;;;;;9.60;8.60;;;16.60;37.40;;;;;;10466519;28;20232;-78
2022/10/04 19:02:02;;;;;;;8.43;7.17;;;16.50;37.40;;;;;;10462079;28;20239;-78
2022/10/04 19:07:11;;;;;;;7.23;6.53;;;16.40;37.40;;;;;;10467879;28;20707;-78
2022/10/04 19:12:21;;;;;;;7.17;6.23;;;16.30;37.50;;;;;;10472021;28;20232;-78
2022/10/04 19:17:28;;;;;;;7.40;6.07;;;16.20;37.50;;;;;;10466294;28;20224;-77
2022/10/04 19:22:45;;;;;;;8.13;7.33;;;16.10;37.60;;;;;;10469502;28;20240;-77
2022/10/04 19:27:51;;;;;;;7.17;6.40;;;16.10;37.60;;;;;;10458232;28;20224;-78
2022/10/04 19:33:03;;;;;;;7.73;7.10;;;16.00;37.60;;;;;;10464624;28;20225;-78
2022/10/04 19:38:28;;;;;;;7.53;6.83;;;15.90;37.80;;;;;;10468874;28;20273;-78
2022/10/04 19:43:41;;;;;;;6.33;5.73;;;15.80;37.50;;;;;;10471240;28;20819;-78
2022/10/04 19:48:49;;;;;;;5.87;5.33;;;15.70;37.60;;;;;;10469314;28;20243;-78
2022/10/04 19:53:59;;;;;;;7.63;6.23;;;15.70;37.70;;;;;;10475479;28;20236;-78
2022/10/04 19:59:08;;;;;;;7.00;6.00;;;15.60;37.60;;;;;;10476542;28;20244;-78
2022/10/04 20:09:53;;;;;;;8.90;7.17;;;15.40;37.60;;;;;;10474730;28;20237;-76
2022/10/04 20:15:19;;;;;;;8.37;7.50;;;15.20;37.50;;;;;;10475315;28;20934;-77
2022/10/04 20:21:03;;;;;;;11.17;6.93;;;15.10;37.70;;;;;;10470376;28;20825;-77
2022/10/04 20:26:09;;;;;;;5.47;4.57;;;15.00;37.60;;;;;;10445104;28;20229;-77
2022/10/04 20:31:45;;;;;;;4.40;4.00;;;14.90;37.60;;;;;;10461900;28;20620;-77
2022/10/04 20:36:53;;;;;;;6.37;5.67;;;14.80;37.70;;;;;;10468537;28;20236;-77
2022/10/04 20:42:23;;;;;;;6.20;5.70;;;14.70;37.60;;;;;;10471645;28;20294;-76
2022/10/04 20:47:39;;;;;;;5.60;5.10;;;14.70;38.00;;;;;;10466419;28;20581;-76
2022/10/04 20:52:47;;;;;;;4.70;4.30;;;14.60;38.00;;;;;;10466591;28;20263;-77
2022/10/04 20:57:52;;;;;;;5.93;5.43;;;14.60;38.10;;;;;;10474955;28;20232;-77
2022/10/04 21:03:09;;;;;;;6.03;5.07;;;14.50;38.00;;;;;;10462564;28;20243;-77
2022/10/04 21:08:23;;;;;;;5.20;4.70;;;14.50;38.10;;;;;;10464583;28;20232;-77
2022/10/04 21:13:42;;;;;;;4.87;4.30;;;14.50;38.10;;;;;;10465764;28;20249;-76
2022/10/04 21:18:45;;;;;;;7.57;4.50;;;14.40;38.10;;;;;;10471208;28;20232;-77
2022/10/04 21:23:48;;;;;;;6.70;4.90;;;14.30;37.90;;;;;;10468999;28;20228;-76
2022/10/04 21:28:55;;;;;;;6.20;5.07;;;14.30;38.00;;;;;;10469172;28;20290;-78
2022/10/04 21:33:59;;;;;;;5.17;4.77;;;14.30;38.20;;;;;;10465910;28;20279;-77
2022/10/04 21:39:02;;;;;;;5.33;4.83;;;14.20;38.00;;;;;;10463573;28;20232;-77
2022/10/04 21:44:06;;;;;;;4.53;4.13;;;14.20;38.00;;;;;;10465098;28;20237;-77
2022/10/04 21:49:09;;;;;;;6.80;4.80;;;14.10;38.00;;;;;;10465137;28;20229;-76
2022/10/04 21:54:13;;;;;;;4.87;4.43;;;14.10;38.00;;;;;;10462917;28;20241;-77
2022/10/04 21:59:17;;;;;;;7.00;4.93;;;14.10;38.00;;;;;;10474581;28;20247;-76
2022/10/04 22:04:20;;;;;;;5.53;5.00;;;14.00;38.00;;;;;;10465784;28;20232;-77
2022/10/04 22:09:23;;;;;;;6.20;4.73;;;13.90;37.90;;;;;;10466744;28;20241;-76
2022/10/04 22:14:28;;;;;;;3.97;3.67;;;13.90;38.00;;;;;;10470153;28;20343;-76
2022/10/04 22:19:31;;;;;;;5.70;5.10;;;13.80;38.10;;;;;;10472291;28;20235;-76
2022/10/04 22:24:36;;;;;;;9.00;7.50;;;13.70;38.00;;;;;;10477497;28;20605;-76
2022/10/04 22:29:40;;;;;;;8.67;6.90;;;13.70;38.10;;;;;;10465111;28;20232;-76
2022/10/04 22:34:43;;;;;;;10.27;6.63;;;13.70;38.10;;;;;;10467069;28;20656;-77
2022/10/04 22:39:47;;;;;;;8.70;7.37;;;13.60;38.10;;;;;;10461921;28;20582;-76
2022/10/04 22:44:51;;;;;;;8.33;6.40;;;13.50;38.00;;;;;;10471411;28;20231;-77
2022/10/04 22:49:56;;;;;;;6.80;5.70;;;13.50;38.10;;;;;;10460781;28;20228;-77
2022/10/04 22:55:02;;;;;;;5.77;5.27;;;13.40;37.90;;;;;;10466999;28;20699;-77
2022/10/04 23:00:11;;;;;;;6.33;5.00;;;13.30;37.90;;;;;;10463727;28;20232;-77
2022/10/04 23:05:16;;;;;;;4.40;4.00;;;13.20;38.00;;;;;;10467663;28;20232;-77
2022/10/04 23:10:20;;;;;;;3.73;3.43;;;13.20;38.00;;;;;;10468207;28;20260;-77
2022/10/04 23:15:24;;;;;;;3.80;3.50;;;13.20;38.30;;;;;;10469925;28;20236;-77
2022/10/04 23:20:29;;;;;;;4.30;3.90;;;13.10;38.30;;;;;;10473938;28;20239;-76
2022/10/04 23:25:32;;;;;;;5.00;4.53;;;13.10;38.30;;;;;;10466899;28;20286;-76
2022/10/04 23:30:37;;;;;;;4.73;4.20;;;13.00;38.30;;;;;;10470732;28;20236;-76
2022/10/04 23:35:40;;;;;;;4.57;4.17;;;13.00;38.30;;;;;;10470156;28;20244;-77
2022/10/04 23:40:44;;;;;;;4.27;3.87;;;13.00;38.20;;;;;;10468774;28;20232;-77
2022/10/04 23:45:48;;;;;;;4.27;3.87;;;12.90;38.30;;;;;;10470960;28;20766;-77
2022/10/04 23:50:53;;;;;;;5.10;4.27;;;12.90;38.30;;;;;;10476301;28;20224;-76
2022/10/04 23:55:58;;;;;;;4.80;4.40;;;12.90;38.30;;;;;;10472266;28;20786;-76
